createdAt,value
2022-10-18T00:00:27.650Z,5.10
2022-10-18T00:02:58.325Z,5.90
2022-10-18T00:05:29.026Z,5.10
2022-10-18T00:07:59.872Z,5.40
2022-10-18T00:10:30.486Z,5.20
2022-10-18T00:13:01.246Z,4.70
2022-10-18T00:15:32.075Z,5.10
2022-10-18T00:18:03.311Z,4.90
2022-10-18T00:20:34.273Z,4.80
2022-10-18T00:23:04.885Z,4.90
2022-10-18T00:25:35.527Z,6.20
2022-10-18T00:28:06.410Z,5.40
2022-10-18T00:30:37.537Z,5.00
2022-10-18T00:33:08.577Z,6.30
2022-10-18T00:35:39.517Z,4.90
2022-10-18T00:38:10.230Z,4.80
2022-10-18T00:40:40.931Z,4.80
2022-10-18T00:43:17.220Z,4.90
2022-10-18T00:45:47.848Z,5.00
2022-10-18T00:48:20.866Z,5.50
2022-10-18T00:50:53.540Z,6.00
2022-10-18T00:53:25.691Z,4.40
2022-10-18T00:55:57.973Z,4.80
2022-10-18T00:58:28.618Z,5.00
2022-10-18T01:00:59.529Z,4.90
2022-10-18T01:03:30.686Z,4.90
2022-10-18T01:06:01.533Z,4.60
2022-10-18T01:08:44.571Z,4.50
2022-10-18T01:11:34.697Z,5.20
2022-10-18T01:14:22.586Z,5.10
2022-10-18T01:17:02.150Z,5.50
2022-10-18T01:22:23.140Z,5.00
2022-10-18T01:25:08.146Z,5.20
2022-10-18T01:27:54.301Z,4.90
2022-10-18T01:30:46.750Z,4.90
2022-10-18T01:33:26.365Z,4.60
2022-10-18T01:38:31.033Z,4.50
2022-10-18T01:41:04.289Z,5.00
2022-10-18T01:43:36.507Z,4.40
2022-10-18T01:46:09.226Z,4.40
2022-10-18T01:48:40.540Z,5.10
2022-10-18T01:51:12.289Z,4.60
2022-10-18T01:53:43.294Z,5.40
2022-10-18T01:56:36.325Z,5.30
2022-10-18T01:59:18.588Z,5.10
2022-10-18T02:02:01.670Z,4.80
2022-10-18T02:04:42.085Z,5.40
2022-10-18T02:07:24.740Z,4.10
2022-10-18T02:10:04.690Z,4.60
2022-10-18T02:12:37.303Z,4.20
2022-10-18T02:15:11.364Z,4.90
2022-10-18T02:17:45.303Z,3.90
2022-10-18T02:20:20.660Z,4.30
2022-10-18T02:22:53.156Z,4.10
2022-10-18T02:25:28.575Z,4.90
2022-10-18T02:27:59.748Z,4.20
2022-10-18T02:30:36.753Z,4.40
2022-10-18T02:33:14.005Z,4.60
2022-10-18T02:35:52.314Z,3.90
2022-10-18T02:38:25.521Z,4.80
2022-10-18T02:40:56.465Z,3.90
2022-10-18T02:43:28.121Z,4.30
2022-10-18T02:45:59.067Z,5.50
2022-10-18T02:48:29.780Z,4.60
2022-10-18T02:51:00.553Z,4.90
2022-10-18T02:53:31.399Z,5.30
2022-10-18T02:56:03.304Z,5.30
2022-10-18T02:58:34.476Z,4.20
2022-10-18T03:01:05.589Z,4.40
2022-10-18T03:03:36.278Z,5.20
2022-10-18T03:06:07.356Z,4.40
2022-10-18T03:08:38.983Z,4.80
2022-10-18T03:11:09.731Z,4.80
2022-10-18T03:13:40.359Z,4.20
2022-10-18T03:16:11.620Z,4.40
2022-10-18T03:18:42.736Z,5.60
2022-10-18T03:21:13.387Z,4.60
2022-10-18T03:23:45.109Z,4.70
2022-10-18T03:26:15.787Z,4.60
2022-10-18T03:28:46.707Z,8.40
2022-10-18T03:31:17.681Z,6.10
2022-10-18T03:33:49.117Z,4.10
2022-10-18T03:36:19.779Z,7.20
2022-10-18T03:38:50.434Z,6.90
2022-10-18T03:41:21.325Z,4.90
2022-10-18T03:43:52.078Z,4.30
2022-10-18T03:46:23.019Z,4.10
2022-10-18T03:48:53.586Z,5.70
2022-10-18T03:51:24.507Z,7.20
2022-10-18T03:53:55.232Z,4.00
2022-10-18T03:56:26.296Z,4.50
2022-10-18T03:58:57.912Z,7.00
2022-10-18T04:01:28.818Z,4.80
2022-10-18T04:03:59.539Z,6.00
2022-10-18T04:06:30.304Z,6.90
2022-10-18T04:09:03.172Z,20.60
2022-10-18T04:11:36.130Z,22.50
2022-10-18T04:14:06.746Z,17.20
2022-10-18T04:16:37.818Z,30.30
2022-10-18T04:19:08.538Z,25.10
2022-10-18T04:21:39.982Z,18.70
2022-10-18T04:24:10.667Z,23.50
2022-10-18T04:26:41.377Z,21.90
2022-10-18T04:29:12.313Z,24.20
2022-10-18T04:31:43.159Z,17.20
2022-10-18T04:34:14.205Z,17.10
2022-10-18T04:36:44.836Z,16.30
2022-10-18T04:39:15.467Z,15.80
2022-10-18T04:41:46.317Z,20.80
2022-10-18T04:44:17.279Z,12.90
2022-10-18T04:46:48.059Z,16.60
2022-10-18T04:49:18.837Z,12.30
2022-10-18T04:51:49.485Z,16.50
2022-10-18T04:54:21.898Z,13.30
2022-10-18T04:56:54.531Z,14.10
2022-10-18T04:59:25.634Z,12.10
2022-10-18T05:01:56.433Z,11.50
2022-10-18T05:04:27.310Z,14.10
2022-10-18T05:06:57.972Z,9.80
2022-10-18T05:09:28.995Z,8.90
2022-10-18T05:11:59.777Z,11.10
2022-10-18T05:14:30.706Z,9.50
2022-10-18T05:17:01.342Z,7.00
2022-10-18T05:19:32.402Z,8.80
2022-10-18T05:22:03.036Z,9.50
2022-10-18T05:24:33.880Z,10.10
2022-10-18T05:27:04.690Z,11.60
2022-10-18T05:29:35.329Z,7.90
2022-10-18T05:32:06.313Z,11.10
2022-10-18T05:34:37.445Z,11.20
2022-10-18T05:37:08.082Z,6.80
2022-10-18T05:39:39.746Z,10.10
2022-10-18T05:42:10.649Z,7.80
2022-10-18T05:44:41.544Z,6.70
2022-10-18T05:47:12.250Z,7.50
2022-10-18T05:49:43.100Z,8.40
2022-10-18T05:52:13.777Z,7.80
2022-10-18T05:54:44.626Z,5.70
2022-10-18T05:57:15.312Z,11.10
2022-10-18T05:59:46.561Z,6.70
2022-10-18T06:02:17.337Z,5.80
2022-10-18T06:04:48.141Z,7.00
2022-10-18T06:07:19.296Z,5.00
2022-10-18T06:09:50.128Z,6.80
2022-10-18T06:12:20.747Z,5.60
2022-10-18T06:14:51.574Z,5.30
2022-10-18T06:17:22.445Z,7.10
2022-10-18T06:19:53.387Z,5.40
2022-10-18T06:22:24.264Z,5.20
2022-10-18T06:24:57.201Z,6.00
2022-10-18T06:27:28.380Z,4.80
2022-10-18T06:29:59.485Z,4.90
2022-10-18T06:32:30.251Z,5.20
2022-10-18T06:35:00.980Z,5.30
2022-10-18T06:37:35.560Z,4.70
2022-10-18T06:40:08.165Z,5.90
2022-10-18T06:42:38.834Z,5.80
2022-10-18T06:45:11.518Z,5.60
2022-10-18T06:47:42.187Z,4.30
2022-10-18T06:50:13.296Z,6.90
2022-10-18T06:52:43.943Z,4.00
2022-10-18T06:55:14.878Z,6.80
2022-10-18T06:57:45.526Z,4.00
2022-10-18T07:00:18.105Z,4.40
2022-10-18T07:02:48.828Z,4.80
2022-10-18T07:05:19.791Z,5.00
2022-10-18T07:07:54.199Z,3.50
2022-10-18T07:10:27.411Z,5.50
2022-10-18T07:13:13.548Z,3.60
2022-10-18T07:15:49.582Z,5.80
2022-10-18T07:18:20.417Z,4.20
2022-10-18T07:20:51.065Z,3.80
2022-10-18T07:23:24.878Z,4.20
2022-10-18T07:25:55.765Z,4.20
2022-10-18T07:28:26.538Z,4.50
2022-10-18T07:30:59.452Z,4.50
2022-10-18T07:33:33.806Z,4.30
2022-10-18T07:36:06.109Z,4.50
2022-10-18T07:38:36.806Z,3.80
2022-10-18T07:41:09.447Z,4.20
2022-10-18T07:43:42.562Z,4.40
2022-10-18T07:46:13.998Z,4.20
2022-10-18T07:48:45.104Z,3.40
2022-10-18T07:51:16.710Z,2.90
2022-10-18T07:53:47.331Z,3.80
2022-10-18T07:56:21.061Z,5.10
2022-10-18T07:58:54.523Z,3.40
2022-10-18T08:01:26.784Z,4.80
2022-10-18T08:04:02.109Z,3.50
2022-10-18T08:06:37.027Z,3.60
2022-10-18T08:09:08.290Z,4.50
2022-10-18T08:11:39.884Z,4.50
2022-10-18T08:14:10.501Z,4.50
2022-10-18T08:16:41.226Z,4.00
2022-10-18T08:19:11.958Z,4.60
2022-10-18T08:21:43.019Z,3.50
2022-10-18T08:24:13.846Z,3.30
2022-10-18T08:26:44.545Z,2.90
2022-10-18T08:29:23.346Z,3.10
2022-10-18T08:31:57.005Z,3.40
2022-10-18T08:34:27.964Z,3.40
2022-10-18T08:36:58.753Z,3.70
2022-10-18T08:39:29.839Z,3.70
2022-10-18T08:42:22.881Z,4.60
2022-10-18T08:44:55.042Z,3.90
2022-10-18T08:47:40.118Z,3.70
2022-10-18T08:50:17.565Z,3.30
2022-10-18T08:52:54.794Z,3.40
2022-10-18T08:55:30.982Z,3.80
2022-10-18T08:58:01.633Z,3.30
2022-10-18T09:00:38.554Z,2.50
2022-10-18T09:03:23.200Z,3.70
2022-10-18T09:05:57.210Z,3.10
2022-10-18T09:08:49.570Z,4.50
2022-10-18T09:11:36.619Z,4.00
2022-10-18T09:14:25.347Z,4.10
2022-10-18T09:17:05.142Z,3.20
2022-10-18T09:19:55.116Z,4.00
2022-10-18T09:22:40.513Z,3.30
2022-10-18T09:25:21.879Z,4.30
2022-10-18T09:27:58.088Z,3.70
2022-10-18T09:30:58.732Z,3.50
2022-10-18T09:33:40.599Z,3.00
2022-10-18T09:36:18.854Z,4.00
2022-10-18T09:38:52.676Z,3.70
2022-10-18T09:41:27.102Z,3.20
2022-10-18T09:44:04.303Z,4.00
2022-10-18T09:46:39.156Z,3.50
2022-10-18T09:49:16.634Z,3.40
2022-10-18T09:51:49.922Z,3.70
2022-10-18T09:54:26.380Z,3.70
2022-10-18T09:57:03.681Z,3.10
2022-10-18T09:59:40.942Z,3.30
2022-10-18T10:02:16.026Z,3.80
2022-10-18T10:04:47.049Z,3.10
2022-10-18T10:07:20.781Z,2.90
2022-10-18T10:09:59.597Z,3.30
2022-10-18T10:12:33.587Z,3.60
2022-10-18T10:15:20.779Z,3.00
2022-10-18T10:18:01.505Z,3.10
2022-10-18T10:20:38.207Z,3.40
2022-10-18T10:25:56.817Z,3.70
2022-10-18T10:28:31.991Z,3.20
2022-10-18T10:31:20.478Z,4.20
2022-10-18T10:33:59.040Z,3.60
2022-10-18T10:36:29.948Z,3.60
2022-10-18T10:39:12.354Z,3.20
2022-10-18T10:41:43.571Z,3.30
2022-10-18T10:44:20.130Z,2.70
2022-10-18T10:46:51.626Z,2.90
2022-10-18T10:49:41.275Z,3.90
2022-10-18T10:52:37.270Z,3.80
2022-10-18T10:55:34.270Z,3.50
2022-10-18T10:58:06.324Z,3.30
2022-10-18T11:00:44.632Z,3.20
2022-10-18T11:03:31.435Z,4.50
2022-10-18T11:06:02.619Z,3.50
2022-10-18T11:08:39.433Z,3.50
2022-10-18T11:11:23.025Z,2.90
2022-10-18T11:14:13.536Z,3.20
2022-10-18T11:16:57.675Z,2.90
2022-10-18T11:19:41.406Z,2.90
2022-10-18T11:22:18.334Z,3.70
2022-10-18T11:24:49.275Z,3.50
2022-10-18T11:27:26.354Z,3.60
2022-10-18T11:30:12.538Z,3.90
2022-10-18T11:32:50.967Z,3.50
2022-10-18T11:35:40.576Z,3.30
2022-10-18T11:38:23.816Z,3.00
2022-10-18T11:41:06.331Z,3.60
2022-10-18T11:44:01.765Z,3.30
2022-10-18T11:46:51.109Z,3.20
2022-10-18T11:49:39.039Z,3.90
2022-10-18T11:52:16.969Z,3.30
2022-10-18T11:55:06.216Z,3.20
2022-10-18T11:57:46.328Z,3.20
2022-10-18T12:00:33.532Z,3.40
2022-10-18T12:03:19.777Z,3.50
2022-10-18T12:05:52.787Z,3.30
2022-10-18T12:08:29.674Z,2.80
2022-10-18T12:11:07.211Z,2.80
2022-10-18T12:13:44.435Z,3.20
2022-10-18T12:16:16.591Z,3.60
2022-10-18T12:18:55.266Z,3.40
2022-10-18T12:21:30.432Z,3.10
2022-10-18T12:24:03.954Z,3.70
2022-10-18T12:29:18.517Z,3.80
2022-10-18T12:31:54.392Z,3.60
2022-10-18T12:34:37.058Z,3.30
2022-10-18T12:37:39.375Z,3.00
2022-10-18T12:40:18.603Z,3.70
2022-10-18T12:42:54.231Z,3.50
2022-10-18T12:45:35.043Z,3.80
2022-10-18T12:48:09.062Z,3.10
2022-10-18T12:50:42.671Z,3.10
2022-10-18T12:53:26.627Z,3.40
2022-10-18T12:56:19.876Z,2.80
2022-10-18T12:58:52.942Z,3.40
2022-10-18T13:01:25.337Z,3.60
2022-10-18T13:03:59.172Z,3.50
2022-10-18T13:07:03.800Z,3.40
2022-10-18T13:09:36.256Z,3.10
2022-10-18T13:12:37.484Z,3.50
2022-10-18T13:15:26.564Z,3.20
2022-10-18T13:18:07.944Z,3.70
2022-10-18T13:20:47.714Z,3.10
2022-10-18T13:23:38.137Z,3.30
2022-10-18T13:26:26.240Z,2.90
2022-10-18T13:29:04.101Z,3.50
2022-10-18T13:31:44.375Z,3.60
2022-10-18T13:34:33.009Z,3.50
2022-10-18T13:37:06.527Z,3.40
2022-10-18T13:42:32.588Z,3.60
2022-10-18T13:45:38.220Z,3.40
2022-10-18T13:48:44.015Z,3.90
2022-10-18T13:51:29.585Z,3.40
2022-10-18T13:54:07.392Z,3.40
2022-10-18T13:57:03.128Z,3.70
2022-10-18T13:59:58.379Z,3.70
2022-10-18T14:03:04.172Z,3.40
2022-10-18T14:05:52.956Z,3.40
2022-10-18T14:08:30.385Z,3.50
2022-10-18T14:11:06.090Z,3.40
2022-10-18T14:13:49.086Z,3.70
2022-10-18T14:16:35.961Z,4.90
2022-10-18T14:19:16.137Z,3.40
2022-10-18T14:21:54.718Z,3.10
2022-10-18T14:24:28.315Z,3.90
2022-10-18T14:27:19.943Z,3.50
2022-10-18T14:29:52.148Z,3.50
2022-10-18T14:32:28.983Z,3.80
2022-10-18T14:35:31.623Z,3.60
2022-10-18T14:37:52.903Z,4.00
2022-10-18T14:40:33.131Z,4.20
2022-10-18T14:43:12.355Z,3.70
2022-10-18T14:45:43.815Z,4.00
2022-10-18T14:48:22.047Z,3.70
2022-10-18T14:51:00.561Z,3.70
2022-10-18T14:53:41.977Z,3.60
2022-10-18T14:56:24.329Z,3.60
2022-10-18T14:58:57.502Z,3.00
2022-10-18T15:01:31.285Z,4.00
2022-10-18T15:04:12.915Z,3.60
2022-10-18T15:06:46.843Z,3.70
2022-10-18T15:09:23.341Z,4.20
2022-10-18T15:11:57.827Z,3.90
2022-10-18T15:14:30.692Z,3.60
2022-10-18T15:17:08.667Z,3.70
2022-10-18T15:19:42.370Z,5.60
2022-10-18T15:22:30.669Z,8.70
2022-10-18T15:25:15.711Z,20.10
2022-10-18T15:27:49.805Z,17.10
2022-10-18T15:30:24.258Z,15.90
2022-10-18T15:32:57.691Z,19.20
2022-10-18T15:35:31.629Z,14.10
2022-10-18T15:38:14.371Z,22.10
2022-10-18T15:40:46.483Z,15.40
2022-10-18T15:43:40.821Z,18.60
2022-10-18T15:46:32.782Z,18.50
2022-10-18T15:49:56.895Z,19.50
2022-10-18T15:52:39.746Z,16.60
2022-10-18T15:55:49.033Z,17.00
2022-10-18T15:58:28.230Z,13.60
2022-10-18T16:01:01.845Z,10.70
2022-10-18T16:03:36.390Z,12.10
2022-10-18T16:06:12.302Z,15.00
2022-10-18T16:08:47.905Z,13.60
2022-10-18T16:11:20.821Z,10.80
2022-10-18T16:13:55.176Z,12.50
2022-10-18T16:16:30.547Z,13.30
2022-10-18T16:19:01.494Z,12.20
2022-10-18T16:21:34.402Z,10.90
2022-10-18T16:24:06.483Z,14.30
2022-10-18T16:26:38.342Z,10.80
2022-10-18T16:29:14.440Z,13.00
2022-10-18T16:31:46.735Z,11.00
2022-10-18T16:34:19.130Z,10.90
2022-10-18T16:36:50.217Z,9.90
2022-10-18T16:39:22.384Z,11.40
2022-10-18T16:41:53.553Z,9.80
2022-10-18T16:44:24.636Z,11.50
2022-10-18T16:46:56.496Z,8.80
2022-10-18T16:49:28.770Z,9.20
2022-10-18T16:52:03.616Z,8.50
2022-10-18T16:54:35.843Z,8.30
2022-10-18T16:57:07.102Z,10.40
2022-10-18T16:59:38.071Z,10.50
2022-10-18T17:02:11.765Z,8.30
2022-10-18T17:04:42.846Z,6.90
2022-10-18T17:07:23.891Z,8.50
2022-10-18T17:09:54.810Z,6.70
2022-10-18T17:12:25.893Z,7.40
2022-10-18T17:14:57.282Z,7.10
2022-10-18T17:17:28.245Z,6.90
2022-10-18T17:19:59.465Z,7.90
2022-10-18T17:22:30.506Z,6.80
2022-10-18T17:25:02.628Z,9.20
2022-10-18T17:27:33.900Z,9.00
2022-10-18T17:30:05.847Z,7.00
2022-10-18T17:32:37.035Z,6.90
2022-10-18T17:35:08.959Z,7.10
2022-10-18T17:37:43.973Z,9.30
2022-10-18T17:40:17.707Z,6.70
2022-10-18T17:42:48.637Z,7.70
2022-10-18T17:45:20.024Z,8.10
2022-10-18T17:47:51.083Z,5.60
2022-10-18T17:50:22.510Z,8.40
2022-10-18T17:52:55.602Z,6.50
2022-10-18T17:55:27.664Z,6.80
2022-10-18T17:57:58.770Z,6.30
2022-10-18T18:00:29.544Z,6.00
2022-10-18T18:03:01.493Z,6.20
2022-10-18T18:05:35.676Z,6.10
2022-10-18T18:08:06.714Z,6.60
2022-10-18T18:10:37.680Z,6.60
2022-10-18T18:13:08.463Z,6.50
2022-10-18T18:15:39.394Z,6.50
2022-10-18T18:18:10.234Z,5.80
2022-10-18T18:20:41.086Z,6.50
2022-10-18T18:23:11.850Z,5.80
2022-10-18T18:25:43.034Z,6.60
2022-10-18T18:28:13.943Z,6.30
2022-10-18T18:30:44.829Z,5.80
2022-10-18T18:33:15.760Z,6.90
2022-10-18T18:35:54.783Z,5.50
2022-10-18T18:38:26.365Z,7.20
2022-10-18T18:41:07.893Z,6.80
2022-10-18T18:43:39.930Z,5.80
2022-10-18T18:46:12.635Z,6.50
2022-10-18T18:48:43.762Z,6.20
2022-10-18T18:51:16.427Z,5.90
2022-10-18T18:53:48.761Z,5.30
2022-10-18T18:58:59.344Z,6.10
2022-10-18T19:01:32.104Z,5.70
2022-10-18T19:04:03.627Z,6.30
2022-10-18T19:06:36.728Z,7.50
2022-10-18T19:09:13.258Z,6.10
2022-10-18T19:11:44.140Z,5.80
2022-10-18T19:14:14.947Z,5.80
2022-10-18T19:16:49.293Z,6.10
2022-10-18T19:19:21.975Z,7.00
2022-10-18T19:21:55.177Z,6.30
2022-10-18T19:24:27.334Z,6.90
2022-10-18T19:26:59.831Z,6.60
2022-10-18T19:29:32.457Z,7.70
2022-10-18T19:32:05.879Z,11.90
2022-10-18T19:34:37.029Z,5.80
2022-10-18T19:37:09.564Z,6.60
2022-10-18T19:39:40.579Z,8.00
2022-10-18T19:42:17.428Z,8.20
2022-10-18T19:44:51.470Z,9.10
2022-10-18T19:47:22.355Z,8.40
2022-10-18T19:49:53.915Z,6.90
2022-10-18T19:52:24.584Z,8.10
2022-10-18T19:54:55.265Z,6.50
2022-10-18T19:57:26.593Z,7.30
2022-10-18T19:59:59.091Z,8.60
2022-10-18T20:02:31.678Z,7.60
2022-10-18T20:05:03.986Z,7.00
2022-10-18T20:07:35.107Z,7.70
2022-10-18T20:10:06.547Z,7.80
2022-10-18T20:12:37.533Z,6.50
2022-10-18T20:15:09.913Z,8.20
2022-10-18T20:17:40.628Z,5.50
2022-10-18T20:20:13.300Z,6.70
2022-10-18T20:22:44.209Z,6.00
2022-10-18T20:25:15.165Z,5.70
2022-10-18T20:27:46.092Z,5.80
2022-10-18T20:30:16.938Z,6.60
2022-10-18T20:32:47.633Z,5.70
2022-10-18T20:35:18.734Z,7.20
2022-10-18T20:37:49.864Z,5.90
2022-10-18T20:40:20.946Z,6.10
2022-10-18T20:42:54.309Z,6.50
2022-10-18T20:45:26.104Z,5.30
2022-10-18T20:47:57.730Z,7.00
2022-10-18T20:50:28.406Z,8.20
2022-10-18T20:52:59.617Z,6.10
2022-10-18T20:55:31.533Z,5.90
2022-10-18T20:58:02.221Z,6.00
2022-10-18T21:00:33.058Z,6.10
2022-10-18T21:03:04.544Z,5.70
2022-10-18T21:05:35.456Z,5.60
2022-10-18T21:08:06.540Z,6.10
2022-10-18T21:10:37.222Z,5.70
2022-10-18T21:13:07.891Z,5.10
2022-10-18T21:15:38.715Z,5.90
2022-10-18T21:18:09.550Z,5.50
2022-10-18T21:20:40.290Z,5.20
2022-10-18T21:23:10.989Z,5.50
2022-10-18T21:25:47.291Z,5.10
2022-10-18T21:28:18.789Z,5.10
2022-10-18T21:30:49.486Z,5.20
2022-10-18T21:33:20.153Z,5.10
2022-10-18T21:35:50.965Z,5.50
2022-10-18T21:38:21.617Z,5.40
2022-10-18T21:40:52.338Z,5.10
2022-10-18T21:43:23.016Z,5.00
2022-10-18T21:46:00.085Z,6.50
2022-10-18T21:48:30.902Z,6.60
2022-10-18T21:51:05.785Z,5.80
2022-10-18T21:53:37.362Z,8.00
2022-10-18T21:56:10.414Z,7.70
2022-10-18T21:58:41.946Z,5.70
2022-10-18T22:01:15.386Z,5.40
2022-10-18T22:03:47.296Z,5.20
2022-10-18T22:06:19.260Z,5.60
2022-10-18T22:08:52.833Z,5.30
2022-10-18T22:13:55.164Z,6.40
2022-10-18T22:16:26.394Z,5.20
2022-10-18T22:19:00.860Z,5.40
2022-10-18T22:21:32.021Z,5.30
2022-10-18T22:24:05.696Z,5.40
2022-10-18T22:26:38.474Z,6.10
2022-10-18T22:29:11.753Z,6.40
2022-10-18T22:31:45.181Z,5.00
2022-10-18T22:34:18.828Z,5.20
2022-10-18T22:36:49.936Z,4.90
2022-10-18T22:39:20.927Z,4.60
2022-10-18T22:41:55.994Z,5.00
2022-10-18T22:44:27.060Z,6.10
2022-10-18T22:46:57.705Z,5.40
2022-10-18T22:49:29.896Z,5.20
2022-10-18T22:52:00.585Z,5.30
2022-10-18T22:54:31.181Z,4.20
2022-10-18T22:57:01.869Z,5.30
2022-10-18T22:59:32.903Z,5.20
2022-10-18T23:02:04.023Z,5.00
2022-10-18T23:04:34.708Z,5.10
2022-10-18T23:07:05.370Z,5.20
2022-10-18T23:09:36.542Z,4.80
2022-10-18T23:12:07.717Z,5.60
2022-10-18T23:14:38.348Z,5.10
2022-10-18T23:17:08.989Z,5.60
2022-10-18T23:19:39.619Z,4.50
2022-10-18T23:22:10.364Z,4.90
2022-10-18T23:24:41.162Z,5.60
2022-10-18T23:27:11.770Z,6.00
2022-10-18T23:29:42.435Z,5.60
2022-10-18T23:32:13.103Z,4.20
2022-10-18T23:34:43.764Z,5.10
2022-10-18T23:37:14.492Z,4.40
2022-10-18T23:39:45.162Z,5.00
2022-10-18T23:42:15.960Z,4.40
2022-10-18T23:44:46.699Z,3.80
2022-10-18T23:47:17.744Z,5.30
2022-10-18T23:49:48.480Z,5.10
2022-10-18T23:52:19.119Z,4.60
2022-10-18T23:54:50.404Z,5.10
2022-10-18T23:57:21.042Z,5.50
2022-10-18T23:59:51.740Z,5.30
